»·PEaware :: N826BB L52-L88

N826BB :: L52-L88

FLIGHT INFORMATION

Flight Status: Arrived
Operator: Privately registered:
United States
More flights under this callsign
Pilot: Remy Z. (45486)
Aircraft: CIRRUS SR-22 TURBO
(S22T)
More flights by this aircraft type
Origin: L52 Oceano Co
United States
Destination: L88 New Cuyama
United States
More flights between these airports :: More routes between these airports
Route:
File this flight plan on PilotEdge
Remarks:
Altitude:
(Current/Filed)
7,000ft
Speed:
(Current/Filed)
165kts
Departed: 12-Nov-23 03:37 AM
Arrived: 12-Nov-23 04:02 AM
Distance/Time
Traveled:
47nm/0:25
Distance/Time
To Go:
Arrived

Flight Plot

Page will automatically refresh every two minutes.


Map Options




Map Legend


Flown Route
Filed Route
Departure Airport
Arrival Airport
Navaid (VOR, NDB)
Fix

Horizontal Profiles

Position Reports

Time Latitude Longitude Heading Altitude Ground
Speed
12-Nov-23 03:06 35.102102 -120.622276 212 16ft 0kts
12-Nov-23 03:07 35.102102 -120.622276 212 16ft 0kts
12-Nov-23 03:08 35.102102 -120.622276 212 16ft 0kts
12-Nov-23 03:09 35.102102 -120.622276 212 16ft 0kts
12-Nov-23 03:10 35.102102 -120.622276 212 16ft 0kts
12-Nov-23 03:11 35.102102 -120.622276 212 16ft 0kts
12-Nov-23 03:12 35.102102 -120.622276 212 16ft 0kts
12-Nov-23 03:13 35.102102 -120.622276 212 16ft 0kts
12-Nov-23 03:14 35.102102 -120.622276 212 16ft 0kts
12-Nov-23 03:15 35.102102 -120.622276 212 16ft 0kts
12-Nov-23 03:16 35.102102 -120.622276 212 16ft 0kts
12-Nov-23 03:17 35.102102 -120.622276 212 16ft 0kts
12-Nov-23 03:18 35.102102 -120.622276 212 16ft 0kts
12-Nov-23 03:19 35.102102 -120.622276 212 16ft 0kts
12-Nov-23 03:20 35.102102 -120.622276 212 16ft 0kts
12-Nov-23 03:21 35.102102 -120.622276 212 16ft 0kts
12-Nov-23 03:22 35.102102 -120.622276 212 16ft 0kts
12-Nov-23 03:23 35.102102 -120.622276 212 16ft 0kts
12-Nov-23 03:24 35.102102 -120.622276 212 16ft 0kts
12-Nov-23 03:25 35.102102 -120.622276 212 16ft 0kts
12-Nov-23 03:26 35.102016 -120.622292 173 16ft 0kts
12-Nov-23 03:27 35.101990 -120.622288 168 16ft 0kts
12-Nov-23 03:28 35.101382 -120.622583 209 14ft 13kts
12-Nov-23 03:29 35.100703 -120.621762 128 16ft 1kts
12-Nov-23 03:30 35.099634 -120.619745 102 16ft 0kts
12-Nov-23 03:31 35.099634 -120.619745 102 16ft 0kts
12-Nov-23 03:32 35.099634 -120.619745 102 16ft 0kts
12-Nov-23 03:33 35.099634 -120.619739 86 16ft 0kts
12-Nov-23 03:34 35.099432 -120.619548 45 16ft 0kts
12-Nov-23 03:35 35.099433 -120.619548 43 16ft 0kts
12-Nov-23 03:36 35.104461 -120.629332 286 404ft 98kts
12-Nov-23 03:37 35.088699 -120.650407 136 1464ft 141kts
12-Nov-23 03:38 35.081532 -120.606402 75 2468ft 138kts
12-Nov-23 03:39 35.102827 -120.566443 74 3458ft 145kts
12-Nov-23 03:40 35.095636 -120.520542 92 4871ft 131kts
12-Nov-23 03:41 35.091193 -120.473965 98 5966ft 152kts
12-Nov-23 03:42 35.085910 -120.419538 98 6225ft 172kts
12-Nov-23 03:43 35.080875 -120.365706 98 6883ft 163kts
12-Nov-23 03:44 35.075251 -120.307746 98 6886ft 176kts
12-Nov-23 03:45 35.069610 -120.244204 92 5616ft 189kts
12-Nov-23 03:46 35.077307 -120.185478 70 6382ft 145kts
12-Nov-23 03:47 35.070990 -120.131073 132 6345ft 172kts
12-Nov-23 03:48 35.038969 -120.086587 131 6380ft 176kts
12-Nov-23 03:49 35.007536 -120.040458 116 6405ft 178kts
12-Nov-23 03:50 34.994607 -119.981736 102 6628ft 167kts
12-Nov-23 03:51 34.983736 -119.933194 132 7499ft 154kts
12-Nov-23 03:52 34.951747 -119.889074 110 6601ft 189kts
12-Nov-23 03:53 34.943949 -119.830611 121 5362ft 150kts
12-Nov-23 03:54 34.923930 -119.794590 120 4023ft 115kts
12-Nov-23 03:55 34.915634 -119.758006 96 3583ft 123kts
12-Nov-23 03:56 34.906080 -119.724220 93 3288ft 116kts
12-Nov-23 03:57 34.904504 -119.688116 34 2950ft 109kts
12-Nov-23 03:58 34.925734 -119.714484 288 2893ft 144kts
12-Nov-23 03:59 34.952075 -119.728651 64 2878ft 123kts
12-Nov-23 04:00 34.944078 -119.695722 115 2260ft 75kts
12-Nov-23 04:01 34.940724 -119.687486 294 2165ft 6kts
12-Nov-23 04:02 34.943024 -119.691076 353 2153ft 0kts
12-Nov-23 04:04 34.943024 -119.691076 353 2153ft 0kts
12-Nov-23 04:05 34.943024 -119.691076 353 2153ft 0kts
12-Nov-23 04:06 34.943024 -119.691076 352 2153ft 0kts
12-Nov-23 04:07 34.943024 -119.691076 352 2153ft 0kts
12-Nov-23 04:08 34.943024 -119.691076 352 2153ft 0kts
12-Nov-23 04:09 34.943024 -119.691076 352 2153ft 0kts
12-Nov-23 04:10 34.943024 -119.691076 352 2153ft 0kts
12-Nov-23 04:11 34.943024 -119.691076 352 2153ft 0kts
12-Nov-23 04:12 34.943024 -119.691076 352 2153ft 0kts
12-Nov-23 04:13 34.943024 -119.691076 352 2153ft 0kts
12-Nov-23 04:14 34.943024 -119.691076 352 2153ft 0kts
12-Nov-23 04:15 34.943024 -119.691076 352 2153ft 0kts
12-Nov-23 04:16 34.943024 -119.691076 352 2153ft 0kts

Navigation Log

Ident Type
Flight plan parsing failed, navigation log unavailable